sensor_id;sensor_type;location;lat;lon;timestamp;P1;durP1;ratioP1;P2;durP2;ratioP2
76636;SDS011;65532;52.124;5.480;2023-05-21T00:01:47;2.38;;;0.93;;
76636;SDS011;65532;52.124;5.480;2023-05-21T00:04:13;3.55;;;1.05;;
76636;SDS011;65532;52.124;5.480;2023-05-21T00:06:40;5.40;;;1.35;;
76636;SDS011;65532;52.124;5.480;2023-05-21T00:09:07;5.00;;;1.48;;
76636;SDS011;65532;52.124;5.480;2023-05-21T00:11:33;3.30;;;1.20;;
76636;SDS011;65532;52.124;5.480;2023-05-21T00:14:01;2.35;;;0.88;;
76636;SDS011;65532;52.124;5.480;2023-05-21T00:16:27;4.47;;;1.30;;
76636;SDS011;65532;52.124;5.480;2023-05-21T00:18:54;2.95;;;0.85;;
76636;SDS011;65532;52.124;5.480;2023-05-21T00:21:20;2.80;;;1.08;;
76636;SDS011;65532;52.124;5.480;2023-05-21T00:23:48;2.33;;;1.02;;
76636;SDS011;65532;52.124;5.480;2023-05-21T00:26:15;4.22;;;1.10;;
76636;SDS011;65532;52.124;5.480;2023-05-21T00:28:41;4.32;;;1.02;;
76636;SDS011;65532;52.124;5.480;2023-05-21T00:31:08;3.53;;;1.30;;
76636;SDS011;65532;52.124;5.480;2023-05-21T00:33:35;2.53;;;1.33;;
76636;SDS011;65532;52.124;5.480;2023-05-21T00:36:01;2.25;;;1.05;;
76636;SDS011;65532;52.124;5.480;2023-05-21T00:38:28;3.42;;;1.17;;
76636;SDS011;65532;52.124;5.480;2023-05-21T00:41:01;3.65;;;1.25;;
76636;SDS011;65532;52.124;5.480;2023-05-21T00:45:54;4.60;;;1.35;;
76636;SDS011;65532;52.124;5.480;2023-05-21T00:48:21;3.25;;;0.90;;
76636;SDS011;65532;52.124;5.480;2023-05-21T00:50:49;3.10;;;1.50;;
76636;SDS011;65532;52.124;5.480;2023-05-21T00:53:16;5.15;;;1.38;;
76636;SDS011;65532;52.124;5.480;2023-05-21T00:55:45;4.80;;;1.52;;
76636;SDS011;65532;52.124;5.480;2023-05-21T00:58:11;5.13;;;2.35;;
76636;SDS011;65532;52.124;5.480;2023-05-21T01:00:38;4.90;;;1.83;;
76636;SDS011;65532;52.124;5.480;2023-05-21T01:03:06;3.60;;;1.52;;
76636;SDS011;65532;52.124;5.480;2023-05-21T01:05:32;3.42;;;1.38;;
76636;SDS011;65532;52.124;5.480;2023-05-21T01:07:59;4.45;;;1.45;;
76636;SDS011;65532;52.124;5.480;2023-05-21T01:10:27;2.75;;;1.13;;
76636;SDS011;65532;52.124;5.480;2023-05-21T01:12:54;5.50;;;1.75;;
76636;SDS011;65532;52.124;5.480;2023-05-21T01:15:23;4.07;;;1.98;;
76636;SDS011;65532;52.124;5.480;2023-05-21T01:17:51;4.03;;;1.02;;
76636;SDS011;65532;52.124;5.480;2023-05-21T01:20:18;3.38;;;1.75;;
76636;SDS011;65532;52.124;5.480;2023-05-21T01:22:50;3.80;;;1.88;;
76636;SDS011;65532;52.124;5.480;2023-05-21T01:25:18;3.92;;;1.77;;
76636;SDS011;65532;52.124;5.480;2023-05-21T01:27:44;3.75;;;1.90;;
76636;SDS011;65532;52.124;5.480;2023-05-21T01:30:11;3.33;;;1.35;;
76636;SDS011;65532;52.124;5.480;2023-05-21T01:35:25;3.85;;;1.83;;
76636;SDS011;65532;52.124;5.480;2023-05-21T01:38:04;4.85;;;1.65;;
76636;SDS011;65532;52.124;5.480;2023-05-21T01:40:40;5.93;;;2.15;;
76636;SDS011;65532;52.124;5.480;2023-05-21T01:43:08;3.40;;;1.45;;
76636;SDS011;65532;52.124;5.480;2023-05-21T01:45:37;3.40;;;1.58;;
76636;SDS011;65532;52.124;5.480;2023-05-21T01:48:06;7.45;;;2.00;;
76636;SDS011;65532;52.124;5.480;2023-05-21T01:50:34;4.45;;;1.80;;
76636;SDS011;65532;52.124;5.480;2023-05-21T01:53:04;5.57;;;2.17;;
76636;SDS011;65532;52.124;5.480;2023-05-21T01:55:31;5.15;;;2.22;;
76636;SDS011;65532;52.124;5.480;2023-05-21T01:57:58;3.78;;;2.00;;
76636;SDS011;65532;52.124;5.480;2023-05-21T02:00:27;4.90;;;2.20;;
76636;SDS011;65532;52.124;5.480;2023-05-21T02:02:54;4.03;;;2.42;;
76636;SDS011;65532;52.124;5.480;2023-05-21T02:05:21;5.63;;;2.55;;
76636;SDS011;65532;52.124;5.480;2023-05-21T02:07:48;4.65;;;1.45;;
76636;SDS011;65532;52.124;5.480;2023-05-21T02:10:17;4.47;;;2.15;;
76636;SDS011;65532;52.124;5.480;2023-05-21T02:12:44;3.55;;;2.00;;
76636;SDS011;65532;52.124;5.480;2023-05-21T02:15:11;5.63;;;2.00;;
76636;SDS011;65532;52.124;5.480;2023-05-21T02:17:39;5.28;;;2.22;;
76636;SDS011;65532;52.124;5.480;2023-05-21T02:20:09;4.15;;;1.48;;
76636;SDS011;65532;52.124;5.480;2023-05-21T02:22:37;5.13;;;2.20;;
76636;SDS011;65532;52.124;5.480;2023-05-21T02:25:08;5.00;;;2.08;;
76636;SDS011;65532;52.124;5.480;2023-05-21T02:27:35;4.68;;;1.92;;
76636;SDS011;65532;52.124;5.480;2023-05-21T02:30:03;4.32;;;1.95;;
76636;SDS011;65532;52.124;5.480;2023-05-21T02:32:32;5.68;;;1.98;;
76636;SDS011;65532;52.124;5.480;2023-05-21T02:34:59;4.75;;;2.42;;
76636;SDS011;65532;52.124;5.480;2023-05-21T02:37:27;4.85;;;2.28;;
76636;SDS011;65532;52.124;5.480;2023-05-21T02:39:53;4.18;;;2.40;;
76636;SDS011;65532;52.124;5.480;2023-05-21T02:42:21;4.68;;;2.55;;
76636;SDS011;65532;52.124;5.480;2023-05-21T02:44:51;7.85;;;2.38;;
76636;SDS011;65532;52.124;5.480;2023-05-21T02:47:18;6.35;;;2.47;;
76636;SDS011;65532;52.124;5.480;2023-05-21T02:49:47;8.43;;;3.20;;
76636;SDS011;65532;52.124;5.480;2023-05-21T02:52:15;4.55;;;2.05;;
76636;SDS011;65532;52.124;5.480;2023-05-21T02:54:45;4.93;;;2.25;;
76636;SDS011;65532;52.124;5.480;2023-05-21T02:57:12;5.57;;;2.47;;
76636;SDS011;65532;52.124;5.480;2023-05-21T02:59:39;7.65;;;3.00;;
76636;SDS011;65532;52.124;5.480;2023-05-21T03:02:05;4.93;;;1.92;;
76636;SDS011;65532;52.124;5.480;2023-05-21T03:04:32;5.05;;;2.38;;
76636;SDS011;65532;52.124;5.480;2023-05-21T03:07:04;6.40;;;2.55;;
76636;SDS011;65532;52.124;5.480;2023-05-21T03:09:31;6.07;;;3.05;;
76636;SDS011;65532;52.124;5.480;2023-05-21T03:11:58;6.45;;;2.33;;
76636;SDS011;65532;52.124;5.480;2023-05-21T03:14:25;5.28;;;2.30;;
76636;SDS011;65532;52.124;5.480;2023-05-21T03:16:54;5.90;;;2.65;;
76636;SDS011;65532;52.124;5.480;2023-05-21T03:19:20;7.95;;;3.63;;
76636;SDS011;65532;52.124;5.480;2023-05-21T03:21:47;6.50;;;2.45;;
76636;SDS011;65532;52.124;5.480;2023-05-21T03:24:15;4.45;;;2.50;;
76636;SDS011;65532;52.124;5.480;2023-05-21T03:26:42;6.47;;;2.80;;
76636;SDS011;65532;52.124;5.480;2023-05-21T03:29:09;5.47;;;2.85;;
76636;SDS011;65532;52.124;5.480;2023-05-21T03:31:36;9.25;;;3.30;;
76636;SDS011;65532;52.124;5.480;2023-05-21T03:34:12;4.47;;;2.10;;
76636;SDS011;65532;52.124;5.480;2023-05-21T03:36:39;5.25;;;1.83;;
76636;SDS011;65532;52.124;5.480;2023-05-21T03:39:06;4.45;;;2.15;;
76636;SDS011;65532;52.124;5.480;2023-05-21T03:41:33;7.38;;;2.75;;
76636;SDS011;65532;52.124;5.480;2023-05-21T03:44:09;4.25;;;2.55;;
76636;SDS011;65532;52.124;5.480;2023-05-21T03:46:50;5.78;;;2.90;;
76636;SDS011;65532;52.124;5.480;2023-05-21T03:49:20;4.60;;;2.20;;
76636;SDS011;65532;52.124;5.480;2023-05-21T03:51:49;5.40;;;2.92;;
76636;SDS011;65532;52.124;5.480;2023-05-21T03:54:18;6.32;;;2.55;;
76636;SDS011;65532;52.124;5.480;2023-05-21T03:56:45;5.45;;;2.45;;
76636;SDS011;65532;52.124;5.480;2023-05-21T03:59:11;5.20;;;2.30;;
76636;SDS011;65532;52.124;5.480;2023-05-21T04:01:38;7.63;;;1.80;;
76636;SDS011;65532;52.124;5.480;2023-05-21T04:06:35;5.45;;;2.58;;
76636;SDS011;65532;52.124;5.480;2023-05-21T04:09:02;6.40;;;3.13;;
76636;SDS011;65532;52.124;5.480;2023-05-21T04:11:29;7.38;;;2.92;;
76636;SDS011;65532;52.124;5.480;2023-05-21T04:13:56;5.63;;;2.85;;
76636;SDS011;65532;52.124;5.480;2023-05-21T04:16:22;5.95;;;2.17;;
76636;SDS011;65532;52.124;5.480;2023-05-21T04:18:50;4.95;;;2.42;;
76636;SDS011;65532;52.124;5.480;2023-05-21T04:21:17;6.32;;;2.70;;
76636;SDS011;65532;52.124;5.480;2023-05-21T04:23:44;5.40;;;2.78;;
76636;SDS011;65532;52.124;5.480;2023-05-21T04:26:20;6.18;;;2.90;;
76636;SDS011;65532;52.124;5.480;2023-05-21T04:28:48;6.20;;;3.33;;
76636;SDS011;65532;52.124;5.480;2023-05-21T04:31:15;4.93;;;2.63;;
76636;SDS011;65532;52.124;5.480;2023-05-21T04:33:42;4.43;;;2.22;;
76636;SDS011;65532;52.124;5.480;2023-05-21T04:36:11;5.53;;;2.60;;
76636;SDS011;65532;52.124;5.480;2023-05-21T04:38:37;7.70;;;3.35;;
76636;SDS011;65532;52.124;5.480;2023-05-21T04:41:07;5.50;;;2.90;;
76636;SDS011;65532;52.124;5.480;2023-05-21T04:43:36;5.72;;;2.33;;
76636;SDS011;65532;52.124;5.480;2023-05-21T04:46:03;4.70;;;2.50;;
76636;SDS011;65532;52.124;5.480;2023-05-21T04:48:31;5.63;;;3.17;;
76636;SDS011;65532;52.124;5.480;2023-05-21T04:50:58;5.20;;;1.98;;
76636;SDS011;65532;52.124;5.480;2023-05-21T04:53:25;5.38;;;2.50;;
76636;SDS011;65532;52.124;5.480;2023-05-21T04:55:52;6.45;;;2.75;;
76636;SDS011;65532;52.124;5.480;2023-05-21T04:58:19;5.40;;;2.55;;
76636;SDS011;65532;52.124;5.480;2023-05-21T05:00:46;5.95;;;2.53;;
76636;SDS011;65532;52.124;5.480;2023-05-21T05:03:13;6.95;;;2.65;;
76636;SDS011;65532;52.124;5.480;2023-05-21T05:05:42;4.82;;;2.75;;
76636;SDS011;65532;52.124;5.480;2023-05-21T05:08:09;4.05;;;1.92;;
76636;SDS011;65532;52.124;5.480;2023-05-21T05:10:36;5.78;;;2.85;;
76636;SDS011;65532;52.124;5.480;2023-05-21T05:13:03;8.02;;;2.83;;
76636;SDS011;65532;52.124;5.480;2023-05-21T05:15:29;6.05;;;3.25;;
76636;SDS011;65532;52.124;5.480;2023-05-21T05:17:56;7.25;;;2.35;;
76636;SDS011;65532;52.124;5.480;2023-05-21T05:20:23;5.90;;;2.50;;
76636;SDS011;65532;52.124;5.480;2023-05-21T05:22:49;4.95;;;2.47;;
76636;SDS011;65532;52.124;5.480;2023-05-21T05:25:16;5.13;;;2.03;;
76636;SDS011;65532;52.124;5.480;2023-05-21T05:27:43;5.22;;;2.30;;
76636;SDS011;65532;52.124;5.480;2023-05-21T05:30:10;10.27;;;2.38;;
76636;SDS011;65532;52.124;5.480;2023-05-21T05:32:36;7.95;;;2.65;;
76636;SDS011;65532;52.124;5.480;2023-05-21T05:35:03;8.85;;;3.17;;
76636;SDS011;65532;52.124;5.480;2023-05-21T05:37:31;5.03;;;2.35;;
76636;SDS011;65532;52.124;5.480;2023-05-21T05:39:59;5.00;;;2.58;;
76636;SDS011;65532;52.124;5.480;2023-05-21T05:42:26;9.07;;;3.15;;
76636;SDS011;65532;52.124;5.480;2023-05-21T05:44:52;5.45;;;2.15;;
76636;SDS011;65532;52.124;5.480;2023-05-21T05:47:19;6.70;;;2.97;;
76636;SDS011;65532;52.124;5.480;2023-05-21T05:49:46;6.28;;;2.97;;
76636;SDS011;65532;52.124;5.480;2023-05-21T05:52:13;7.75;;;3.25;;
76636;SDS011;65532;52.124;5.480;2023-05-21T05:54:39;5.45;;;2.45;;
76636;SDS011;65532;52.124;5.480;2023-05-21T05:57:07;5.95;;;3.17;;
76636;SDS011;65532;52.124;5.480;2023-05-21T05:59:34;5.35;;;2.03;;
76636;SDS011;65532;52.124;5.480;2023-05-21T06:02:01;6.30;;;2.58;;
76636;SDS011;65532;52.124;5.480;2023-05-21T06:04:27;5.25;;;2.35;;
76636;SDS011;65532;52.124;5.480;2023-05-21T06:06:55;5.10;;;2.38;;
76636;SDS011;65532;52.124;5.480;2023-05-21T06:09:23;7.43;;;2.45;;
76636;SDS011;65532;52.124;5.480;2023-05-21T06:11:50;7.40;;;2.22;;
76636;SDS011;65532;52.124;5.480;2023-05-21T06:14:17;5.50;;;2.83;;
76636;SDS011;65532;52.124;5.480;2023-05-21T06:16:43;5.78;;;2.38;;
76636;SDS011;65532;52.124;5.480;2023-05-21T06:19:10;6.50;;;2.70;;
76636;SDS011;65532;52.124;5.480;2023-05-21T06:21:37;7.05;;;2.85;;
76636;SDS011;65532;52.124;5.480;2023-05-21T06:24:05;5.57;;;2.53;;
76636;SDS011;65532;52.124;5.480;2023-05-21T06:26:32;5.57;;;3.08;;
76636;SDS011;65532;52.124;5.480;2023-05-21T06:28:58;6.07;;;2.33;;
76636;SDS011;65532;52.124;5.480;2023-05-21T06:31:25;5.55;;;3.17;;
76636;SDS011;65532;52.124;5.480;2023-05-21T06:33:52;6.03;;;2.97;;
76636;SDS011;65532;52.124;5.480;2023-05-21T06:36:19;8.57;;;3.33;;
76636;SDS011;65532;52.124;5.480;2023-05-21T06:38:46;5.82;;;2.65;;
76636;SDS011;65532;52.124;5.480;2023-05-21T06:41:13;6.00;;;3.20;;
76636;SDS011;65532;52.124;5.480;2023-05-21T06:43:48;5.90;;;2.97;;
76636;SDS011;65532;52.124;5.480;2023-05-21T06:46:32;5.82;;;2.50;;
76636;SDS011;65532;52.124;5.480;2023-05-21T06:49:04;5.13;;;2.95;;
76636;SDS011;65532;52.124;5.480;2023-05-21T06:51:32;6.32;;;2.60;;
76636;SDS011;65532;52.124;5.480;2023-05-21T06:53:59;7.45;;;2.72;;
76636;SDS011;65532;52.124;5.480;2023-05-21T06:56:27;6.20;;;3.20;;
76636;SDS011;65532;52.124;5.480;2023-05-21T06:58:53;5.55;;;2.75;;
76636;SDS011;65532;52.124;5.480;2023-05-21T07:01:20;6.75;;;2.47;;
76636;SDS011;65532;52.124;5.480;2023-05-21T07:03:50;8.13;;;3.20;;
76636;SDS011;65532;52.124;5.480;2023-05-21T07:06:16;7.03;;;2.63;;
76636;SDS011;65532;52.124;5.480;2023-05-21T07:08:44;6.20;;;2.47;;
76636;SDS011;65532;52.124;5.480;2023-05-21T07:11:11;7.60;;;2.63;;
76636;SDS011;65532;52.124;5.480;2023-05-21T07:13:38;5.93;;;2.60;;
76636;SDS011;65532;52.124;5.480;2023-05-21T07:16:04;6.38;;;2.65;;
76636;SDS011;65532;52.124;5.480;2023-05-21T07:18:31;6.60;;;3.17;;
76636;SDS011;65532;52.124;5.480;2023-05-21T07:20:58;5.90;;;2.50;;
76636;SDS011;65532;52.124;5.480;2023-05-21T07:23:25;7.20;;;2.72;;
76636;SDS011;65532;52.124;5.480;2023-05-21T07:25:51;6.28;;;2.60;;
76636;SDS011;65532;52.124;5.480;2023-05-21T07:28:18;7.35;;;3.53;;
76636;SDS011;65532;52.124;5.480;2023-05-21T07:30:45;5.65;;;2.80;;
76636;SDS011;65532;52.124;5.480;2023-05-21T07:33:16;7.85;;;2.95;;
76636;SDS011;65532;52.124;5.480;2023-05-21T07:35:46;6.10;;;2.70;;
76636;SDS011;65532;52.124;5.480;2023-05-21T07:38:13;7.50;;;2.92;;
76636;SDS011;65532;52.124;5.480;2023-05-21T07:40:39;7.68;;;3.28;;
76636;SDS011;65532;52.124;5.480;2023-05-21T07:43:06;6.05;;;2.55;;
76636;SDS011;65532;52.124;5.480;2023-05-21T07:45:34;6.07;;;2.30;;
76636;SDS011;65532;52.124;5.480;2023-05-21T07:48:01;6.95;;;3.45;;
76636;SDS011;65532;52.124;5.480;2023-05-21T07:50:30;7.60;;;3.50;;
76636;SDS011;65532;52.124;5.480;2023-05-21T07:52:56;9.15;;;3.25;;
76636;SDS011;65532;52.124;5.480;2023-05-21T07:55:23;4.47;;;1.60;;
76636;SDS011;65532;52.124;5.480;2023-05-21T07:57:50;7.53;;;2.03;;
76636;SDS011;65532;52.124;5.480;2023-05-21T08:00:25;8.13;;;2.53;;
76636;SDS011;65532;52.124;5.480;2023-05-21T08:02:55;8.77;;;3.17;;
76636;SDS011;65532;52.124;5.480;2023-05-21T08:05:24;7.93;;;2.88;;
76636;SDS011;65532;52.124;5.480;2023-05-21T08:07:50;6.43;;;3.13;;
76636;SDS011;65532;52.124;5.480;2023-05-21T08:10:18;6.85;;;3.22;;
76636;SDS011;65532;52.124;5.480;2023-05-21T08:12:46;7.28;;;3.20;;
76636;SDS011;65532;52.124;5.480;2023-05-21T08:15:13;6.78;;;2.50;;
76636;SDS011;65532;52.124;5.480;2023-05-21T08:17:43;6.13;;;2.72;;
76636;SDS011;65532;52.124;5.480;2023-05-21T08:20:10;8.18;;;3.13;;
76636;SDS011;65532;52.124;5.480;2023-05-21T08:22:37;8.02;;;2.53;;
76636;SDS011;65532;52.124;5.480;2023-05-21T08:25:04;5.82;;;1.98;;
76636;SDS011;65532;52.124;5.480;2023-05-21T08:27:30;7.38;;;3.10;;
76636;SDS011;65532;52.124;5.480;2023-05-21T08:29:57;5.25;;;3.10;;
76636;SDS011;65532;52.124;5.480;2023-05-21T08:32:24;6.18;;;2.58;;
76636;SDS011;65532;52.124;5.480;2023-05-21T08:34:52;5.15;;;2.70;;
76636;SDS011;65532;52.124;5.480;2023-05-21T08:37:41;6.28;;;3.42;;
76636;SDS011;65532;52.124;5.480;2023-05-21T08:40:26;7.60;;;2.47;;
76636;SDS011;65532;52.124;5.480;2023-05-21T08:42:53;5.97;;;2.50;;
76636;SDS011;65532;52.124;5.480;2023-05-21T08:45:32;6.05;;;2.55;;
76636;SDS011;65532;52.124;5.480;2023-05-21T08:48:03;8.05;;;3.53;;
76636;SDS011;65532;52.124;5.480;2023-05-21T08:50:32;7.18;;;2.97;;
76636;SDS011;65532;52.124;5.480;2023-05-21T08:53:03;7.60;;;3.42;;
76636;SDS011;65532;52.124;5.480;2023-05-21T08:55:49;7.10;;;2.65;;
76636;SDS011;65532;52.124;5.480;2023-05-21T08:58:18;7.05;;;3.10;;
76636;SDS011;65532;52.124;5.480;2023-05-21T09:00:45;7.15;;;3.28;;
76636;SDS011;65532;52.124;5.480;2023-05-21T09:03:11;7.40;;;3.40;;
76636;SDS011;65532;52.124;5.480;2023-05-21T09:05:41;5.70;;;2.70;;
76636;SDS011;65532;52.124;5.480;2023-05-21T09:08:13;6.25;;;3.35;;
76636;SDS011;65532;52.124;5.480;2023-05-21T09:10:54;6.18;;;2.55;;
76636;SDS011;65532;52.124;5.480;2023-05-21T09:13:25;7.38;;;3.47;;
76636;SDS011;65532;52.124;5.480;2023-05-21T09:15:54;7.10;;;3.38;;
76636;SDS011;65532;52.124;5.480;2023-05-21T09:18:22;6.60;;;3.35;;
76636;SDS011;65532;52.124;5.480;2023-05-21T09:21:24;5.40;;;3.33;;
76636;SDS011;65532;52.124;5.480;2023-05-21T09:23:56;6.53;;;3.05;;
76636;SDS011;65532;52.124;5.480;2023-05-21T09:26:24;5.60;;;2.67;;
76636;SDS011;65532;52.124;5.480;2023-05-21T09:28:55;6.43;;;2.85;;
76636;SDS011;65532;52.124;5.480;2023-05-21T09:31:23;7.30;;;2.95;;
76636;SDS011;65532;52.124;5.480;2023-05-21T09:33:51;5.32;;;2.85;;
76636;SDS011;65532;52.124;5.480;2023-05-21T09:36:19;6.53;;;3.05;;
76636;SDS011;65532;52.124;5.480;2023-05-21T09:38:47;5.53;;;2.97;;
76636;SDS011;65532;52.124;5.480;2023-05-21T09:41:16;8.52;;;3.72;;
76636;SDS011;65532;52.124;5.480;2023-05-21T09:43:47;8.45;;;3.38;;
76636;SDS011;65532;52.124;5.480;2023-05-21T09:46:14;7.97;;;2.80;;
76636;SDS011;65532;52.124;5.480;2023-05-21T09:48:41;7.07;;;3.10;;
76636;SDS011;65532;52.124;5.480;2023-05-21T09:51:16;8.43;;;3.90;;
76636;SDS011;65532;52.124;5.480;2023-05-21T09:53:48;5.75;;;3.53;;
76636;SDS011;65532;52.124;5.480;2023-05-21T09:56:24;7.63;;;2.97;;
76636;SDS011;65532;52.124;5.480;2023-05-21T09:58:54;7.57;;;2.75;;
76636;SDS011;65532;52.124;5.480;2023-05-21T10:01:22;6.57;;;3.08;;
76636;SDS011;65532;52.124;5.480;2023-05-21T10:03:53;4.93;;;2.25;;
76636;SDS011;65532;52.124;5.480;2023-05-21T10:06:34;7.82;;;3.38;;
76636;SDS011;65532;52.124;5.480;2023-05-21T10:09:06;5.60;;;3.38;;
76636;SDS011;65532;52.124;5.480;2023-05-21T10:11:36;6.57;;;2.05;;
76636;SDS011;65532;52.124;5.480;2023-05-21T10:14:08;7.57;;;3.03;;
76636;SDS011;65532;52.124;5.480;2023-05-21T10:16:41;5.38;;;3.05;;
76636;SDS011;65532;52.124;5.480;2023-05-21T10:19:09;5.85;;;3.10;;
76636;SDS011;65532;52.124;5.480;2023-05-21T10:21:38;5.70;;;3.10;;
76636;SDS011;65532;52.124;5.480;2023-05-21T10:24:07;6.65;;;2.95;;
76636;SDS011;65532;52.124;5.480;2023-05-21T10:26:34;5.20;;;2.60;;
76636;SDS011;65532;52.124;5.480;2023-05-21T10:29:01;7.70;;;3.17;;
76636;SDS011;65532;52.124;5.480;2023-05-21T10:31:28;7.55;;;3.75;;
76636;SDS011;65532;52.124;5.480;2023-05-21T10:33:54;6.68;;;2.83;;
76636;SDS011;65532;52.124;5.480;2023-05-21T10:36:22;8.25;;;3.33;;
76636;SDS011;65532;52.124;5.480;2023-05-21T10:38:49;8.65;;;2.83;;
76636;SDS011;65532;52.124;5.480;2023-05-21T10:41:16;5.03;;;2.75;;
76636;SDS011;65532;52.124;5.480;2023-05-21T10:43:50;5.90;;;2.95;;
76636;SDS011;65532;52.124;5.480;2023-05-21T10:59:54;6.45;;;3.78;;
76636;SDS011;65532;52.124;5.480;2023-05-21T11:02:24;6.25;;;3.10;;
76636;SDS011;65532;52.124;5.480;2023-05-21T11:04:58;6.45;;;3.58;;
76636;SDS011;65532;52.124;5.480;2023-05-21T11:10:31;9.30;;;3.38;;
76636;SDS011;65532;52.124;5.480;2023-05-21T11:13:07;7.50;;;3.42;;
76636;SDS011;65532;52.124;5.480;2023-05-21T11:21:31;10.05;;;3.92;;
76636;SDS011;65532;52.124;5.480;2023-05-21T11:24:00;6.75;;;3.58;;
76636;SDS011;65532;52.124;5.480;2023-05-21T11:29:13;7.20;;;3.53;;
76636;SDS011;65532;52.124;5.480;2023-05-21T11:31:46;7.32;;;3.40;;
76636;SDS011;65532;52.124;5.480;2023-05-21T11:36:45;5.70;;;3.45;;
76636;SDS011;65532;52.124;5.480;2023-05-21T11:39:14;8.95;;;5.47;;
76636;SDS011;65532;52.124;5.480;2023-05-21T11:45:03;7.15;;;3.55;;
76636;SDS011;65532;52.124;5.480;2023-05-21T11:47:26;7.95;;;4.10;;
76636;SDS011;65532;52.124;5.480;2023-05-21T11:49:54;12.38;;;5.53;;
76636;SDS011;65532;52.124;5.480;2023-05-21T11:52:22;8.50;;;4.20;;
76636;SDS011;65532;52.124;5.480;2023-05-21T11:54:52;7.63;;;3.90;;
76636;SDS011;65532;52.124;5.480;2023-05-21T11:57:26;12.38;;;4.88;;
76636;SDS011;65532;52.124;5.480;2023-05-21T11:59:57;9.38;;;5.10;;
76636;SDS011;65532;52.124;5.480;2023-05-21T12:02:26;9.98;;;5.03;;
76636;SDS011;65532;52.124;5.480;2023-05-21T12:04:53;7.70;;;3.90;;
76636;SDS011;65532;52.124;5.480;2023-05-21T12:07:21;9.10;;;4.47;;
76636;SDS011;65532;52.124;5.480;2023-05-21T12:09:48;8.32;;;4.63;;
76636;SDS011;65532;52.124;5.480;2023-05-21T12:12:16;9.40;;;5.22;;
76636;SDS011;65532;52.124;5.480;2023-05-21T12:14:48;7.53;;;4.25;;
76636;SDS011;65532;52.124;5.480;2023-05-21T12:17:15;9.98;;;4.18;;
76636;SDS011;65532;52.124;5.480;2023-05-21T12:19:44;9.38;;;5.05;;
76636;SDS011;65532;52.124;5.480;2023-05-21T12:22:11;8.90;;;4.82;;
76636;SDS011;65532;52.124;5.480;2023-05-21T12:24:38;8.50;;;4.90;;
76636;SDS011;65532;52.124;5.480;2023-05-21T12:27:05;7.93;;;4.78;;
76636;SDS011;65532;52.124;5.480;2023-05-21T12:29:35;8.02;;;4.35;;
76636;SDS011;65532;52.124;5.480;2023-05-21T12:32:04;7.55;;;4.22;;
76636;SDS011;65532;52.124;5.480;2023-05-21T12:34:43;8.93;;;4.63;;
76636;SDS011;65532;52.124;5.480;2023-05-21T12:37:13;8.38;;;4.93;;
76636;SDS011;65532;52.124;5.480;2023-05-21T12:39:43;7.05;;;4.50;;
76636;SDS011;65532;52.124;5.480;2023-05-21T12:42:11;11.88;;;5.07;;
76636;SDS011;65532;52.124;5.480;2023-05-21T12:44:38;7.10;;;3.97;;
76636;SDS011;65532;52.124;5.480;2023-05-21T12:47:09;10.18;;;4.53;;
76636;SDS011;65532;52.124;5.480;2023-05-21T12:49:38;8.80;;;5.30;;
76636;SDS011;65532;52.124;5.480;2023-05-21T12:52:10;7.20;;;4.32;;
76636;SDS011;65532;52.124;5.480;2023-05-21T12:54:38;9.70;;;5.05;;
76636;SDS011;65532;52.124;5.480;2023-05-21T13:02:25;13.77;;;5.53;;
76636;SDS011;65532;52.124;5.480;2023-05-21T13:07:25;13.57;;;4.50;;
76636;SDS011;65532;52.124;5.480;2023-05-21T13:09:53;8.75;;;5.80;;
76636;SDS011;65532;52.124;5.480;2023-05-21T13:12:23;9.48;;;4.88;;
76636;SDS011;65532;52.124;5.480;2023-05-21T13:14:52;8.18;;;5.03;;
76636;SDS011;65532;52.124;5.480;2023-05-21T13:17:20;9.98;;;5.68;;
76636;SDS011;65532;52.124;5.480;2023-05-21T13:22:35;8.93;;;5.75;;
76636;SDS011;65532;52.124;5.480;2023-05-21T13:25:13;9.15;;;5.20;;
76636;SDS011;65532;52.124;5.480;2023-05-21T13:27:41;11.65;;;6.35;;
76636;SDS011;65532;52.124;5.480;2023-05-21T13:30:08;10.25;;;7.07;;
76636;SDS011;65532;52.124;5.480;2023-05-21T13:32:39;11.27;;;4.95;;
76636;SDS011;65532;52.124;5.480;2023-05-21T13:35:06;8.30;;;4.90;;
76636;SDS011;65532;52.124;5.480;2023-05-21T13:37:33;8.93;;;5.70;;
76636;SDS011;65532;52.124;5.480;2023-05-21T13:42:31;8.02;;;3.85;;
76636;SDS011;65532;52.124;5.480;2023-05-21T13:44:59;11.90;;;4.90;;
76636;SDS011;65532;52.124;5.480;2023-05-21T13:47:25;7.28;;;4.80;;
76636;SDS011;65532;52.124;5.480;2023-05-21T13:49:52;12.35;;;4.80;;
76636;SDS011;65532;52.124;5.480;2023-05-21T13:52:18;9.02;;;5.50;;
76636;SDS011;65532;52.124;5.480;2023-05-21T13:54:45;9.35;;;5.15;;
76636;SDS011;65532;52.124;5.480;2023-05-21T13:57:11;10.50;;;5.43;;
76636;SDS011;65532;52.124;5.480;2023-05-21T13:59:38;9.55;;;5.80;;
76636;SDS011;65532;52.124;5.480;2023-05-21T14:02:06;9.75;;;5.55;;
76636;SDS011;65532;52.124;5.480;2023-05-21T14:04:34;8.40;;;5.88;;
76636;SDS011;65532;52.124;5.480;2023-05-21T14:07:04;8.43;;;4.90;;
76636;SDS011;65532;52.124;5.480;2023-05-21T14:09:31;8.13;;;4.80;;
76636;SDS011;65532;52.124;5.480;2023-05-21T14:11:58;9.38;;;4.53;;
76636;SDS011;65532;52.124;5.480;2023-05-21T14:14:24;8.85;;;4.43;;
76636;SDS011;65532;52.124;5.480;2023-05-21T14:16:51;11.00;;;4.57;;
76636;SDS011;65532;52.124;5.480;2023-05-21T14:19:18;10.20;;;5.30;;
76636;SDS011;65532;52.124;5.480;2023-05-21T14:21:44;7.22;;;4.40;;
76636;SDS011;65532;52.124;5.480;2023-05-21T14:24:11;10.48;;;4.57;;
76636;SDS011;65532;52.124;5.480;2023-05-21T14:26:41;10.57;;;5.57;;
76636;SDS011;65532;52.124;5.480;2023-05-21T14:29:07;10.50;;;5.13;;
76636;SDS011;65532;52.124;5.480;2023-05-21T14:31:34;12.73;;;5.57;;
76636;SDS011;65532;52.124;5.480;2023-05-21T14:34:01;10.20;;;5.18;;
76636;SDS011;65532;52.124;5.480;2023-05-21T14:36:28;9.35;;;5.00;;
76636;SDS011;65532;52.124;5.480;2023-05-21T14:38:55;9.93;;;5.00;;
76636;SDS011;65532;52.124;5.480;2023-05-21T14:41:24;10.88;;;5.47;;
76636;SDS011;65532;52.124;5.480;2023-05-21T14:43:52;10.90;;;5.00;;
76636;SDS011;65532;52.124;5.480;2023-05-21T14:46:19;9.23;;;4.65;;
76636;SDS011;65532;52.124;5.480;2023-05-21T14:48:46;8.70;;;4.63;;
76636;SDS011;65532;52.124;5.480;2023-05-21T14:51:12;10.18;;;5.90;;
76636;SDS011;65532;52.124;5.480;2023-05-21T14:53:39;9.70;;;5.35;;
76636;SDS011;65532;52.124;5.480;2023-05-21T14:56:06;10.18;;;4.78;;
76636;SDS011;65532;52.124;5.480;2023-05-21T14:58:33;8.23;;;4.75;;
76636;SDS011;65532;52.124;5.480;2023-05-21T15:01:00;9.75;;;4.55;;
76636;SDS011;65532;52.124;5.480;2023-05-21T15:03:27;11.75;;;4.90;;
76636;SDS011;65532;52.124;5.480;2023-05-21T15:05:54;8.18;;;4.20;;
76636;SDS011;65532;52.124;5.480;2023-05-21T15:08:20;8.45;;;4.30;;
76636;SDS011;65532;52.124;5.480;2023-05-21T15:10:47;9.35;;;4.57;;
76636;SDS011;65532;52.124;5.480;2023-05-21T15:13:14;9.05;;;4.93;;
76636;SDS011;65532;52.124;5.480;2023-05-21T15:15:40;9.73;;;4.70;;
76636;SDS011;65532;52.124;5.480;2023-05-21T15:18:07;7.68;;;4.78;;
76636;SDS011;65532;52.124;5.480;2023-05-21T15:20:34;10.38;;;4.57;;
76636;SDS011;65532;52.124;5.480;2023-05-21T15:23:00;8.65;;;4.97;;
76636;SDS011;65532;52.124;5.480;2023-05-21T15:25:42;8.63;;;4.72;;
76636;SDS011;65532;52.124;5.480;2023-05-21T15:28:08;10.10;;;3.95;;
76636;SDS011;65532;52.124;5.480;2023-05-21T15:30:36;8.82;;;4.90;;
76636;SDS011;65532;52.124;5.480;2023-05-21T15:33:03;8.15;;;4.00;;
76636;SDS011;65532;52.124;5.480;2023-05-21T15:35:29;11.02;;;4.10;;
76636;SDS011;65532;52.124;5.480;2023-05-21T15:37:56;6.57;;;3.33;;
76636;SDS011;65532;52.124;5.480;2023-05-21T15:40:23;7.45;;;4.13;;
76636;SDS011;65532;52.124;5.480;2023-05-21T15:42:52;9.43;;;4.93;;
76636;SDS011;65532;52.124;5.480;2023-05-21T15:45:18;10.40;;;5.03;;